createdAt,value
2023-04-02T06:01:41.336Z,8.96
2023-04-02T06:04:34.593Z,9.05
2023-04-02T06:07:06.023Z,9.14
2023-04-02T06:09:41.081Z,9.17
2023-04-02T06:12:15.984Z,9.21
2023-04-02T06:14:43.329Z,9.25
2023-04-02T06:17:20.718Z,9.30
2023-04-02T06:19:48.017Z,9.31
2023-04-02T06:22:34.395Z,9.28
2023-04-02T06:25:06.854Z,9.34
2023-04-02T06:27:40.113Z,9.39
2023-04-02T06:30:16.460Z,9.44
2023-04-02T06:32:43.361Z,9.51
2023-04-02T06:35:14.929Z,9.54
2023-04-02T06:37:46.318Z,9.49
2023-04-02T06:40:31.225Z,9.50
2023-04-02T06:42:59.793Z,9.50
2023-04-02T06:45:39.821Z,9.49
2023-04-02T06:48:19.351Z,9.52
2023-04-02T06:51:18.685Z,9.53
2023-04-02T06:53:49.774Z,9.50
2023-04-02T06:56:36.964Z,9.48
2023-04-02T06:59:07.575Z,9.51
2023-04-02T07:01:48.780Z,9.49
2023-04-02T07:04:15.675Z,9.55
2023-04-02T07:06:45.260Z,9.58
2023-04-02T07:09:14.001Z,9.61
2023-04-02T07:11:44.460Z,9.64
2023-04-02T07:14:12.887Z,9.62
2023-04-02T07:16:40.014Z,9.64
2023-04-02T07:19:06.775Z,9.63
2023-04-02T07:21:37.032Z,9.64
2023-04-02T07:24:03.571Z,9.66
2023-04-02T07:26:30.067Z,9.72
2023-04-02T07:28:56.883Z,9.70
2023-04-02T07:31:25.857Z,9.79
2023-04-02T07:33:59.598Z,9.88
2023-04-02T07:36:28.000Z,9.92
2023-04-02T07:38:55.836Z,9.93
2023-04-02T07:41:23.222Z,9.95
2023-04-02T07:43:49.940Z,9.96
2023-04-02T07:46:16.741Z,10.04
2023-04-02T07:48:44.075Z,10.12
2023-04-02T07:51:22.293Z,10.17
2023-04-02T07:53:50.178Z,10.29
2023-04-02T07:56:18.775Z,10.36
2023-04-02T07:58:45.691Z,10.29
2023-04-02T08:01:21.240Z,10.26
2023-04-02T08:03:47.942Z,10.29
2023-04-02T08:06:14.540Z,10.34
2023-04-02T08:08:41.125Z,10.33
2023-04-02T08:11:08.368Z,10.37
2023-04-02T08:13:34.960Z,10.38
2023-04-02T08:16:02.238Z,10.31
2023-04-02T08:18:29.803Z,10.29
2023-04-02T08:20:56.658Z,10.28
2023-04-02T08:23:23.206Z,10.30
2023-04-02T08:25:50.469Z,10.28
2023-04-02T08:28:17.240Z,10.30
2023-04-02T08:30:43.863Z,10.29
2023-04-02T08:33:10.732Z,10.29
2023-04-02T08:35:37.524Z,10.27
2023-04-02T08:38:04.191Z,10.27
2023-04-02T08:40:39.017Z,10.24
2023-04-02T08:43:05.355Z,10.21
2023-04-02T08:46:02.750Z,10.17
2023-04-02T08:48:31.242Z,10.13
2023-04-02T08:50:58.835Z,10.08
2023-04-02T08:53:28.572Z,10.06
2023-04-02T08:56:06.107Z,10.03
2023-04-02T08:58:42.940Z,9.88
2023-04-02T09:01:39.655Z,9.55
2023-04-02T09:04:14.245Z,9.30
2023-04-02T09:06:43.597Z,9.05
2023-04-02T09:09:12.514Z,8.87
2023-04-02T09:11:53.084Z,8.78
2023-04-02T09:14:22.717Z,8.62
2023-04-02T09:16:56.039Z,8.61
2023-04-02T09:19:33.463Z,8.61
2023-04-02T09:22:18.284Z,8.69
2023-04-02T09:24:45.611Z,8.80
2023-04-02T09:27:19.051Z,8.76
2023-04-02T09:29:47.535Z,8.78
2023-04-02T09:32:23.661Z,8.80
2023-04-02T09:34:50.173Z,8.78
2023-04-02T09:37:19.356Z,8.82
2023-04-02T09:39:46.054Z,8.90
2023-04-02T09:42:33.820Z,9.00
2023-04-02T09:45:13.788Z,9.11
2023-04-02T09:47:42.460Z,9.10
2023-04-02T09:50:20.837Z,9.09
2023-04-02T09:52:48.296Z,9.06
2023-04-02T09:55:15.281Z,8.96
2023-04-02T09:57:42.652Z,9.00
2023-04-02T10:00:32.086Z,9.04
2023-04-02T10:03:25.922Z,9.22
2023-04-02T10:06:13.355Z,9.26
2023-04-02T10:08:42.257Z,9.28
2023-04-02T10:11:14.821Z,9.20
2023-04-02T10:13:57.866Z,9.24
2023-04-02T10:16:34.037Z,9.25
2023-04-02T10:19:23.361Z,9.26
2023-04-02T10:21:49.736Z,9.17
2023-04-02T10:24:17.131Z,9.16
2023-04-02T10:26:51.290Z,9.07
2023-04-02T10:29:44.175Z,8.98
2023-04-02T10:32:16.495Z,9.09
2023-04-02T10:34:44.096Z,9.11
2023-04-02T10:37:24.219Z,9.18
2023-04-02T10:39:54.450Z,9.15
2023-04-02T10:42:30.587Z,9.22
2023-04-02T10:45:23.845Z,9.29
2023-04-02T10:48:00.794Z,9.25
2023-04-02T10:50:38.253Z,9.24
2023-04-02T10:53:14.830Z,9.25
2023-04-02T10:55:44.379Z,9.14
2023-04-02T10:58:25.490Z,9.01
2023-04-02T11:00:55.198Z,8.97
2023-04-02T11:03:45.083Z,8.92
2023-04-02T11:06:19.529Z,8.88
2023-04-02T11:08:48.112Z,8.86
2023-04-02T11:11:17.266Z,8.83
2023-04-02T11:14:11.293Z,8.79
2023-04-02T11:16:40.738Z,8.76
2023-04-02T11:19:15.939Z,8.81
2023-04-02T11:21:57.238Z,8.82
2023-04-02T11:24:32.926Z,8.81
2023-04-02T11:27:14.396Z,8.88
2023-04-02T11:29:42.656Z,9.03
2023-04-02T11:32:25.300Z,8.90
2023-04-02T11:35:05.962Z,8.73
2023-04-02T11:37:44.708Z,8.73
2023-04-02T11:40:11.088Z,8.82
2023-04-02T11:42:45.562Z,8.78
2023-04-02T11:45:21.402Z,8.74
2023-04-02T11:48:08.373Z,8.72
2023-04-02T11:50:41.949Z,8.73
2023-04-02T11:53:14.753Z,8.66
2023-04-02T11:55:42.080Z,8.74
2023-04-02T11:58:36.285Z,8.69
2023-04-02T12:01:05.485Z,8.76
2023-04-02T12:03:44.236Z,8.78
2023-04-02T12:06:47.682Z,8.88
2023-04-02T12:09:27.184Z,9.01
2023-04-02T12:11:56.176Z,9.09
2023-04-02T12:14:37.649Z,9.14
2023-04-02T12:17:08.487Z,9.14
2023-04-02T12:19:36.744Z,9.16
2023-04-02T12:22:03.364Z,9.08
2023-04-02T12:24:31.332Z,8.96
2023-04-02T12:27:17.767Z,8.98
2023-04-02T12:29:44.356Z,8.85
2023-04-02T12:32:24.884Z,8.66
2023-04-02T12:34:52.777Z,8.49
2023-04-02T12:37:21.883Z,8.42
2023-04-02T12:39:56.587Z,8.39
2023-04-02T12:42:31.881Z,8.33
2023-04-02T12:44:58.394Z,8.20
2023-04-02T12:47:25.186Z,8.10
2023-04-02T12:49:52.631Z,8.01
2023-04-02T12:52:21.581Z,8.09
2023-04-02T12:54:50.356Z,8.12
2023-04-02T12:57:26.132Z,8.07
2023-04-02T13:00:01.375Z,8.03
2023-04-02T13:02:30.129Z,7.96
2023-04-02T13:05:01.176Z,8.07
2023-04-02T13:07:30.730Z,7.99
2023-04-02T13:09:59.374Z,7.77
2023-04-02T13:12:34.201Z,7.74
2023-04-02T13:15:03.105Z,7.79
2023-04-02T13:17:37.240Z,7.76
2023-04-02T13:20:27.338Z,7.72
2023-04-02T13:22:53.865Z,7.76
2023-04-02T13:25:27.821Z,7.73
2023-04-02T13:27:54.563Z,7.62
2023-04-02T13:30:24.475Z,7.66
2023-04-02T13:32:51.016Z,7.73
2023-04-02T13:35:17.656Z,7.71
2023-04-02T13:37:44.394Z,7.69
2023-04-02T13:40:14.925Z,7.66
2023-04-02T13:42:42.508Z,7.68
2023-04-02T13:45:36.609Z,7.71
2023-04-02T13:48:04.080Z,7.61
2023-04-02T13:50:32.570Z,7.53
2023-04-02T13:53:05.972Z,7.50
2023-04-02T13:55:36.661Z,7.42
2023-04-02T13:58:04.004Z,7.38
2023-04-02T14:00:31.301Z,7.30
2023-04-02T14:03:07.333Z,7.35
2023-04-02T14:05:59.151Z,7.37
2023-04-02T14:08:56.920Z,7.24
2023-04-02T14:11:48.121Z,7.17
2023-04-02T14:14:45.465Z,7.24
2023-04-02T14:17:49.725Z,7.17
2023-04-02T14:20:25.166Z,7.17
2023-04-02T14:23:00.629Z,7.21
2023-04-02T14:25:38.985Z,7.19
2023-04-02T14:28:37.752Z,7.16
2023-04-02T14:31:18.096Z,7.18
2023-04-02T14:34:13.212Z,7.32
2023-04-02T14:36:51.797Z,7.32
2023-04-02T14:39:18.375Z,7.44
2023-04-02T14:41:50.842Z,7.45
2023-04-02T14:44:20.038Z,7.41
2023-04-02T14:46:47.063Z,7.27
2023-04-02T14:49:23.784Z,7.17
2023-04-02T14:51:56.184Z,7.05
2023-04-02T14:54:42.574Z,7.05
2023-04-02T14:57:22.995Z,7.05
2023-04-02T15:00:04.897Z,7.04
2023-04-02T15:02:51.663Z,6.98
2023-04-02T15:05:28.435Z,6.89
2023-04-02T15:08:03.280Z,6.82
2023-04-02T15:10:32.014Z,6.69
2023-04-02T15:13:00.471Z,6.63
2023-04-02T15:15:43.409Z,6.69
2023-04-02T15:18:13.045Z,6.78
2023-04-02T15:21:09.040Z,6.83
2023-04-02T15:24:12.989Z,6.81
2023-04-02T15:27:21.895Z,6.72
2023-04-02T15:29:58.509Z,6.78
2023-04-02T15:32:32.311Z,6.69
2023-04-02T15:35:29.344Z,6.71
2023-04-02T15:38:20.122Z,6.72
2023-04-02T15:40:49.339Z,6.68
2023-04-02T15:43:34.261Z,6.67
2023-04-02T15:46:27.106Z,6.71
2023-04-02T15:49:15.341Z,6.65
2023-04-02T15:51:48.462Z,6.57
2023-04-02T15:54:16.357Z,6.48
2023-04-02T15:57:18.610Z,6.47
2023-04-02T15:59:57.121Z,6.36
2023-04-02T16:03:02.469Z,6.31
2023-04-02T16:06:16.762Z,6.38
2023-04-02T16:09:07.986Z,6.46
2023-04-02T16:11:34.809Z,6.48
2023-04-02T16:14:13.277Z,6.42
2023-04-02T16:16:40.246Z,6.40
2023-04-02T16:19:16.789Z,6.44
2023-04-02T16:21:49.169Z,6.51
2023-04-02T16:24:15.832Z,6.52
2023-04-02T16:27:05.605Z,6.46
2023-04-02T16:29:55.180Z,6.45
2023-04-02T16:32:49.853Z,6.43
2023-04-02T16:35:42.781Z,6.44
2023-04-02T16:38:24.945Z,6.43
2023-04-02T16:41:07.023Z,6.41
2023-04-02T16:43:34.929Z,6.29
2023-04-02T16:46:38.971Z,6.27
2023-04-02T16:49:31.397Z,6.30
2023-04-02T16:52:03.992Z,6.25
2023-04-02T16:55:00.940Z,6.17
2023-04-02T16:57:31.361Z,6.04
2023-04-02T17:00:42.942Z,6.00
2023-04-02T17:03:24.656Z,6.06
2023-04-02T17:05:55.777Z,6.04
2023-04-02T17:08:26.917Z,5.98
2023-04-02T17:11:06.317Z,5.95
2023-04-02T17:13:47.358Z,5.98
2023-04-02T17:16:20.081Z,5.99
2023-04-02T17:18:48.794Z,6.03
2023-04-02T17:21:19.289Z,6.01
2023-04-02T17:24:02.650Z,5.89
2023-04-02T17:26:30.835Z,5.76
2023-04-02T17:28:59.033Z,5.63
2023-04-02T17:31:27.597Z,5.52
2023-04-02T17:33:54.037Z,5.53
2023-04-02T17:36:35.786Z,5.57
2023-04-02T17:39:35.651Z,5.52
2023-04-02T17:42:10.536Z,5.56
2023-04-02T17:44:56.660Z,5.67
2023-04-02T17:47:26.973Z,5.72
2023-04-02T17:50:24.541Z,5.76
2023-04-02T17:53:04.625Z,5.67
2023-04-02T17:55:50.402Z,5.75
2023-04-02T17:58:38.333Z,5.70
2023-04-02T18:01:14.340Z,5.68
2023-04-02T18:03:53.142Z,5.65
2023-04-02T18:06:30.842Z,5.55
2023-04-02T18:09:40.972Z,5.36
2023-04-02T18:12:38.527Z,5.37
2023-04-02T18:15:15.632Z,5.32
2023-04-02T18:17:48.486Z,5.26
2023-04-02T18:20:35.382Z,5.28
2023-04-02T18:23:38.541Z,5.40
2023-04-02T18:26:27.858Z,5.30
2023-04-02T18:29:30.318Z,5.21
2023-04-02T18:32:15.228Z,5.18
2023-04-02T18:35:20.623Z,5.15
2023-04-02T18:37:57.994Z,5.06
2023-04-02T18:40:31.662Z,5.01
2023-04-02T18:43:01.047Z,5.02
2023-04-02T18:45:40.758Z,5.03
2023-04-02T18:48:12.904Z,5.03
2023-04-02T18:50:45.857Z,5.06
2023-04-02T18:53:18.438Z,5.07
2023-04-02T18:55:49.556Z,5.02
2023-04-02T18:58:23.106Z,4.93
2023-04-02T19:00:50.098Z,4.87
2023-04-02T19:03:17.855Z,4.89
2023-04-02T19:05:51.385Z,4.88
2023-04-02T19:08:22.174Z,4.88
2023-04-02T19:10:53.902Z,4.90
2023-04-02T19:13:21.295Z,4.87
2023-04-02T19:16:13.517Z,4.76
2023-04-02T19:19:00.012Z,4.68
2023-04-02T19:21:54.378Z,4.69
2023-04-02T19:24:28.031Z,4.74
2023-04-02T19:26:59.658Z,4.74
2023-04-02T19:29:59.321Z,4.81
2023-04-02T19:32:34.144Z,4.85
2023-04-02T19:35:28.024Z,4.93
2023-04-02T19:38:15.881Z,4.96
2023-04-02T19:40:51.340Z,4.96
2023-04-02T19:43:18.034Z,4.98
2023-04-02T19:45:46.824Z,5.00
2023-04-02T19:48:26.508Z,4.92
2023-04-02T19:50:53.644Z,4.88
2023-04-02T19:53:20.200Z,4.90
2023-04-02T19:55:46.753Z,4.91
2023-04-02T19:58:26.285Z,4.95
2023-04-02T20:00:52.818Z,4.97
2023-04-02T20:03:19.341Z,4.99
2023-04-02T20:05:46.087Z,4.97
2023-04-02T20:08:12.498Z,5.00
2023-04-02T20:10:39.119Z,5.02
2023-04-02T20:13:05.872Z,5.06
2023-04-02T20:15:32.379Z,5.06
2023-04-02T20:17:58.826Z,5.03
2023-04-02T20:20:25.303Z,5.04
2023-04-02T20:22:51.754Z,5.04
2023-04-02T20:25:19.286Z,5.02
2023-04-02T20:27:46.002Z,5.02
2023-04-02T20:30:12.603Z,5.01
2023-04-02T20:32:39.166Z,5.00
2023-04-02T20:35:06.046Z,4.95
2023-04-02T20:37:32.779Z,4.98
2023-04-02T20:39:59.213Z,4.98
2023-04-02T20:42:25.953Z,4.94
2023-04-02T20:44:52.522Z,4.95
2023-04-02T20:47:19.331Z,4.97
2023-04-02T20:49:45.813Z,4.98
2023-04-02T20:52:12.321Z,4.99
2023-04-02T20:54:38.752Z,5.01
2023-04-02T20:57:07.721Z,5.04
2023-04-02T20:59:34.249Z,5.05
2023-04-02T21:02:00.749Z,5.05
2023-04-02T21:04:27.860Z,5.01
2023-04-02T21:06:56.941Z,5.00
2023-04-02T21:09:23.597Z,5.00
2023-04-02T21:11:50.231Z,5.00
2023-04-02T21:14:18.073Z,5.00
2023-04-02T21:16:44.857Z,5.01
2023-04-02T21:19:11.321Z,5.06
2023-04-02T21:21:38.924Z,5.06
2023-04-02T21:24:07.227Z,5.04
2023-04-02T21:26:36.829Z,5.06
2023-04-02T21:29:03.496Z,5.09
2023-04-02T21:31:34.223Z,5.07
2023-04-02T21:34:00.724Z,5.09
2023-04-02T21:36:35.310Z,5.04
2023-04-02T21:39:15.901Z,4.90
2023-04-02T21:41:43.904Z,4.76
2023-04-02T21:44:13.893Z,4.63
2023-04-02T21:46:44.895Z,4.60
2023-04-02T21:49:13.856Z,4.63
2023-04-02T21:51:42.063Z,4.58
2023-04-02T21:54:08.885Z,4.61
2023-04-02T21:56:37.495Z,4.63
2023-04-02T21:59:05.737Z,4.63
2023-04-02T22:01:38.153Z,4.62
2023-04-02T22:04:06.139Z,4.63
2023-04-02T22:06:36.782Z,4.64
2023-04-02T22:09:06.771Z,4.62
2023-04-02T22:11:36.375Z,4.62
2023-04-02T22:14:03.924Z,4.61
2023-04-02T22:16:31.934Z,4.61
2023-04-02T22:19:00.811Z,4.59
2023-04-02T22:21:28.448Z,4.50
2023-04-02T22:23:55.284Z,4.46
2023-04-02T22:26:25.602Z,4.38
2023-04-02T22:28:52.629Z,4.31
2023-04-02T22:31:24.538Z,4.22
2023-04-02T22:33:51.776Z,4.13
2023-04-02T22:36:18.837Z,4.05
2023-04-02T22:38:45.850Z,3.99
2023-04-02T22:41:14.728Z,3.94
2023-04-02T22:43:43.752Z,3.93
2023-04-02T22:46:12.548Z,3.91
2023-04-02T22:48:42.190Z,3.82
2023-04-02T22:51:10.339Z,3.79
2023-04-02T22:53:37.341Z,3.73
2023-04-02T22:56:11.273Z,3.68
2023-04-02T22:58:37.936Z,3.57
2023-04-02T23:01:05.738Z,3.47
2023-04-02T23:03:33.626Z,3.38
2023-04-02T23:06:07.186Z,3.26
2023-04-02T23:08:34.821Z,3.17
2023-04-02T23:11:09.450Z,3.11
2023-04-02T23:13:36.716Z,3.04
2023-04-02T23:16:05.525Z,2.97
2023-04-02T23:18:33.537Z,2.91
2023-04-02T23:21:00.048Z,2.87
2023-04-02T23:23:26.937Z,2.82
2023-04-02T23:26:11.670Z,2.76
2023-04-02T23:28:39.864Z,2.70
2023-04-02T23:31:08.905Z,2.70
2023-04-02T23:33:35.588Z,2.67
2023-04-02T23:36:18.643Z,2.65
2023-04-02T23:38:45.146Z,2.63
2023-04-02T23:41:17.800Z,2.61
2023-04-02T23:43:44.425Z,2.56
2023-04-02T23:46:11.533Z,2.52
2023-04-02T23:48:38.021Z,2.45
2023-04-02T23:51:10.688Z,2.44
2023-04-02T23:53:37.110Z,2.39
2023-04-02T23:56:03.679Z,2.35
2023-04-02T23:58:30.237Z,2.33
